NCAR-RAP Real-Time Weather Data

Output produced by METARs form (26 September 2017  14:30 UTC)
found at http://weather.rap.ucar.edu/surface/
 
Conditions at: KSRQ observed 26 September 2017  13:53 UTC
Temperature: 25.6°C (78°F)
Dewpoint: 24.4°C (76°F) [RH = 93%]
Pressure (altimeter): 29.92 inches Hg (1013.3 mb)
[Sea-level pressure: 1013.2 mb]
Winds: from the E (100 degrees) at 3 MPH (3 knots; 1.6 m/s)
Visibility: 10 or more miles (16+ km)
Ceiling: at least 12,000 feet AGL
Clouds: sky clear below 12,000 feet AGL
Present Weather: no significant weather observed at this time
KSRQ 261353Z 10003KT 10SM CLR 26/24 A2992 RMK AO2 SLP132 T02560244

Conditions at: KSRQ observed 26 September 2017  12:53 UTC
Temperature: 24.4°C (76°F)
Dewpoint: 24.4°C (76°F) [RH = 100%]
Pressure (altimeter): 29.92 inches Hg (1013.3 mb)
[Sea-level pressure: 1013.0 mb]
Winds: from the E (80 degrees) at 6 MPH (5 knots; 2.6 m/s)
Visibility: 10 or more miles (16+ km)
Ceiling: at least 12,000 feet AGL
Clouds: sky clear below 12,000 feet AGL
Present Weather: no significant weather observed at this time
KSRQ 261253Z 08005KT 10SM CLR 24/24 A2992 RMK AO2 SLP130 T02440244

Conditions at: KSRQ observed 26 September 2017  11:53 UTC
Temperature: 22.2°C (72°F)
Dewpoint: 22.2°C (72°F) [RH = 100%]
Pressure (altimeter): 29.90 inches Hg (1012.6 mb)
[Sea-level pressure: 1012.4 mb]
Winds: from the ENE (60 degrees) at 3 MPH (3 knots; 1.6 m/s)
Visibility: 10 or more miles (16+ km)
Ceiling: at least 12,000 feet AGL
Clouds: sky clear below 12,000 feet AGL
Present Weather:
SOME DATA ABOVE MAY BE INACCURATE!!!
"$" is an indication the sensor requires maintenance
KSRQ 261153Z 06003KT 10SM CLR 22/22 A2990 RMK AO2 SLP124 T02220222 10239 20217 53015 $

Conditions at: KSRQ observed 26 September 2017  10:53 UTC
Temperature: 22.2°C (72°F)
Dewpoint: 22.2°C (72°F) [RH = 100%]
Pressure (altimeter): 29.88 inches Hg (1011.9 mb)
[Sea-level pressure: 1011.6 mb]
Winds: from the ENE (70 degrees) at 5 MPH (4 knots; 2.1 m/s)
Visibility: 10 or more miles (16+ km)
Ceiling: at least 12,000 feet AGL
Clouds: sky clear below 12,000 feet AGL
Present Weather: no significant weather observed at this time
KSRQ 261053Z 07004KT 10SM CLR 22/22 A2988 RMK AO2 SLP116 T02220222

Conditions at: KSRQ observed 26 September 2017  09:53 UTC
Temperature: 22.2°C (72°F)
Dewpoint: 22.2°C (72°F) [RH = 100%]
Pressure (altimeter): 29.87 inches Hg (1011.6 mb)
[Sea-level pressure: 1011.3 mb]
Winds: from the N (360 degrees) at 3 MPH (3 knots; 1.6 m/s)
Visibility: 10 or more miles (16+ km)
Ceiling: at least 12,000 feet AGL
Clouds: sky clear below 12,000 feet AGL
Present Weather: no significant weather observed at this time
KSRQ 260953Z 36003KT 10SM CLR 22/22 A2987 RMK AO2 SLP113 T02220222

Conditions at: KSRQ observed 26 September 2017  08:53 UTC
Temperature: 22.8°C (73°F)
Dewpoint: 22.8°C (73°F) [RH = 100%]
Pressure (altimeter): 29.85 inches Hg (1010.9 mb)
[Sea-level pressure: 1010.8 mb]
Winds: calm
Visibility: 10 or more miles (16+ km)
Ceiling: at least 12,000 feet AGL
Clouds: sky clear below 12,000 feet AGL
Present Weather: automated observation with no human augmentation;
there may or may not be significant weather present at this time
KSRQ 260853Z AUTO 00000KT 10SM CLR 23/23 A2985 RMK AO2 SLP108 T02280228 58005

Conditions at: KSRQ observed 26 September 2017  07:53 UTC
Temperature: 22.8°C (73°F)
Dewpoint: 22.8°C (73°F) [RH = 100%]
Pressure (altimeter): 29.86 inches Hg (1011.3 mb)
[Sea-level pressure: 1011.2 mb]
Winds: from the ENE (60 degrees) at 3 MPH (3 knots; 1.6 m/s)
Visibility: 10 or more miles (16+ km)
Ceiling: at least 12,000 feet AGL
Clouds: few clouds at 5500 feet AGL
few clouds at 7000 feet AGL
Present Weather: automated observation with no human augmentation;
there may or may not be significant weather present at this time
KSRQ 260753Z AUTO 06003KT 10SM FEW055 FEW070 23/23 A2986 RMK AO2 SLP112 T02280228

Conditions at: KSRQ observed 26 September 2017  06:53 UTC
Temperature: 23.9°C (75°F)
Dewpoint: 23.9°C (75°F) [RH = 100%]
Pressure (altimeter): 29.87 inches Hg (1011.6 mb)
[Sea-level pressure: 1011.4 mb]
Winds: from the ENE (60 degrees) at 5 MPH (4 knots; 2.1 m/s)
Visibility: 10 or more miles (16+ km)
Ceiling: 4800 feet AGL
Clouds: broken clouds at 4800 feet AGL
Present Weather: automated observation with no human augmentation;
there may or may not be significant weather present at this time
KSRQ 260653Z AUTO 06004KT 10SM BKN048 24/24 A2987 RMK AO2 SLP114 T02390239

Conditions at: KSRQ observed 26 September 2017  05:53 UTC
Temperature: 23.9°C (75°F)
Dewpoint: 23.9°C (75°F) [RH = 100%]
Pressure (altimeter): 29.87 inches Hg (1011.6 mb)
[Sea-level pressure: 1011.3 mb]
Winds: from the N (360 degrees) at 3 MPH (3 knots; 1.6 m/s)
Visibility: 10 or more miles (16+ km)
Ceiling: at least 12,000 feet AGL
Clouds: scattered clouds at 5500 feet AGL
Present Weather: automated observation with no human augmentation;
there may or may not be significant weather present at this time
KSRQ 260553Z AUTO 36003KT 10SM SCT055 24/24 A2987 RMK AO2 SLP113 T02390239 10250 20239 58003

Conditions at: KSRQ observed 26 September 2017  04:53 UTC
Temperature: 24.4°C (76°F)
Dewpoint: 23.9°C (75°F) [RH = 97%]
Pressure (altimeter): 29.87 inches Hg (1011.6 mb)
[Sea-level pressure: 1011.5 mb]
Winds: from the NW (320 degrees) at 3 MPH (3 knots; 1.6 m/s)
Visibility: 10 or more miles (16+ km)
Ceiling: 4900 feet AGL
Clouds: broken clouds at 4900 feet AGL
Present Weather: automated observation with no human augmentation;
there may or may not be significant weather present at this time
KSRQ 260453Z AUTO 32003KT 10SM BKN049 24/24 A2987 RMK AO2 SLP115 T02440239 402890222

Conditions at: KSRQ observed 26 September 2017  03:53 UTC
Temperature: 24.4°C (76°F)
Dewpoint: 24.4°C (76°F) [RH = 100%]
Pressure (altimeter): 29.88 inches Hg (1011.9 mb)
[Sea-level pressure: 1011.7 mb]
Winds: from the WNW (300 degrees) at 5 MPH (4 knots; 2.1 m/s)
Visibility: 10 or more miles (16+ km)
Ceiling: at least 12,000 feet AGL
Clouds: sky clear below 12,000 feet AGL
Present Weather: automated observation with no human augmentation;
there may or may not be significant weather present at this time
KSRQ 260353Z AUTO 30004KT 10SM CLR 24/24 A2988 RMK AO2 SLP117 T02440244

Conditions at: KSRQ observed 26 September 2017  02:53 UTC
Temperature: 24.4°C (76°F)
Dewpoint: 24.4°C (76°F) [RH = 100%]
Pressure (altimeter): 29.88 inches Hg (1011.9 mb)
[Sea-level pressure: 1011.6 mb]
Winds: from the NNW (330 degrees) at 3 MPH (3 knots; 1.6 m/s)
Visibility: 10 or more miles (16+ km)
Ceiling: at least 12,000 feet AGL
Clouds: sky clear below 12,000 feet AGL
Present Weather: no significant weather observed at this time
KSRQ 260253Z 33003KT 10SM CLR 24/24 A2988 RMK AO2 SLP116 T02440244 51011

Conditions at: KSRQ observed 26 September 2017  01:53 UTC
Temperature: 25.0°C (77°F)
Dewpoint: 23.9°C (75°F) [RH = 94%]
Pressure (altimeter): 29.87 inches Hg (1011.6 mb)
[Sea-level pressure: 1011.5 mb]
Winds: from the NNW (330 degrees) at 3 MPH (3 knots; 1.6 m/s)
Visibility: 10 or more miles (16+ km)
Ceiling: at least 12,000 feet AGL
Clouds: sky clear below 12,000 feet AGL
Present Weather: no significant weather observed at this time
KSRQ 260153Z 33003KT 10SM CLR 25/24 A2987 RMK AO2 SLP115 T02500239

Conditions at: KSRQ observed 26 September 2017  00:53 UTC
Temperature: 25.0°C (77°F)
Dewpoint: 24.4°C (76°F) [RH = 96%]
Pressure (altimeter): 29.86 inches Hg (1011.3 mb)
[Sea-level pressure: 1011.0 mb]
Winds: from the WNW (300 degrees) at 6 MPH (5 knots; 2.6 m/s)
Visibility: 10 or more miles (16+ km)
Ceiling: at least 12,000 feet AGL
Clouds: sky clear below 12,000 feet AGL
Present Weather: no significant weather observed at this time
KSRQ 260053Z 30005KT 10SM CLR 25/24 A2986 RMK AO2 SLP110 T02500244

Conditions at: KSRQ observed 25 September 2017  23:53 UTC
Temperature: 25.0°C (77°F)
Dewpoint: 23.9°C (75°F) [RH = 94%]
Pressure (altimeter): 29.84 inches Hg (1010.6 mb)
[Sea-level pressure: 1010.5 mb]
Winds: from the NW (320 degrees) at 6 MPH (5 knots; 2.6 m/s)
Visibility: 10 or more miles (16+ km)
Ceiling: at least 12,000 feet AGL
Clouds: sky clear below 12,000 feet AGL
Present Weather: no significant weather observed at this time
KSRQ 252353Z 32005KT 10SM CLR 25/24 A2984 RMK AO2 SLP105 T02500239 10289 20250 53009

Conditions at: KSRQ observed 25 September 2017  22:53 UTC
Temperature: 26.7°C (80°F)
Dewpoint: 24.4°C (76°F) [RH = 87%]
Pressure (altimeter): 29.83 inches Hg (1010.2 mb)
[Sea-level pressure: 1010.1 mb]
Winds: from the W (280 degrees) at 9 MPH (8 knots; 4.2 m/s)
Visibility: 10 or more miles (16+ km)
Ceiling: at least 12,000 feet AGL
Clouds: sky clear below 12,000 feet AGL
Present Weather: no significant weather observed at this time
KSRQ 252253Z 28008KT 10SM CLR 27/24 A2983 RMK AO2 SLP101 T02670244

Conditions at: KSRQ observed 25 September 2017  21:53 UTC
Temperature: 27.2°C (81°F)
Dewpoint: 24.4°C (76°F) [RH = 85%]
Pressure (altimeter): 29.82 inches Hg (1009.9 mb)
[Sea-level pressure: 1009.7 mb]
Winds: from the WNW (300 degrees) at 9 MPH (8 knots; 4.2 m/s)
Visibility: 10 or more miles (16+ km)
Ceiling: at least 12,000 feet AGL
Clouds: sky clear below 12,000 feet AGL
Present Weather: no significant weather observed at this time
KSRQ 252153Z 30008KT 10SM CLR 27/24 A2982 RMK AO2 SLP097 T02720244

Conditions at: KSRQ observed 25 September 2017  21:03 UTC
Temperature: 27.2°C (81°F)
Dewpoint: 24.4°C (76°F) [RH = 85%]
Pressure (altimeter): 29.82 inches Hg (1009.9 mb)
Winds: from the W (280 degrees) at 12 MPH (10 knots; 5.2 m/s)
Visibility: 10 or more miles (16+ km)
Ceiling: at least 12,000 feet AGL
Clouds: sky clear below 12,000 feet AGL
Present Weather: no significant weather observed at this time
KSRQ 252103Z 28010KT 10SM CLR 27/24 A2982 RMK AO2 LTG DSNT E T02720244

Conditions at: KSRQ observed 25 September 2017  20:53 UTC
Temperature: 27.8°C (82°F)
Dewpoint: 24.4°C (76°F) [RH = 82%]
Pressure (altimeter): 29.82 inches Hg (1009.9 mb)
[Sea-level pressure: 1009.6 mb]
Winds: from the WNW (290 degrees) at 10 MPH (9 knots; 4.7 m/s)
Visibility: 10 or more miles (16+ km)
Ceiling: at least 12,000 feet AGL
Clouds: sky clear below 12,000 feet AGL
Present Weather: VCTS  (thunderstorm in vicinity)
KSRQ 252053Z 29009KT 10SM VCTS CLR 28/24 A2982 RMK AO2 LTG DSNT E SLP096 T02780244 56018

Conditions at: KSRQ observed 25 September 2017  19:53 UTC
Temperature: 28.3°C (83°F)
Dewpoint: 23.3°C (74°F) [RH = 74%]
Pressure (altimeter): 29.83 inches Hg (1010.2 mb)
[Sea-level pressure: 1010.0 mb]
Winds: from the W (270 degrees) at 10 MPH (9 knots; 4.7 m/s)
Visibility: 10 or more miles (16+ km)
Ceiling: at least 12,000 feet AGL
Clouds: sky clear below 12,000 feet AGL
Present Weather: no significant weather observed at this time
KSRQ 251953Z 27009KT 10SM CLR 28/23 A2983 RMK AO2 SLP100 T02830233

Conditions at: KSRQ observed 25 September 2017  18:53 UTC
Temperature: 28.3°C (83°F)
Dewpoint: 22.8°C (73°F) [RH = 72%]
Pressure (altimeter): 29.85 inches Hg (1010.9 mb)
[Sea-level pressure: 1010.7 mb]
Winds: from the WSW (240 degrees) at 9 MPH (8 knots; 4.2 m/s)
Visibility: 10 or more miles (16+ km)
Ceiling: at least 12,000 feet AGL
Clouds: sky clear below 12,000 feet AGL
Present Weather: no significant weather observed at this time
KSRQ 251853Z 24008KT 10SM CLR 28/23 A2985 RMK AO2 SLP107 T02830228

Conditions at: KSRQ observed 25 September 2017  17:53 UTC
Temperature: 28.3°C (83°F)
Dewpoint: 23.3°C (74°F) [RH = 74%]
Pressure (altimeter): 29.87 inches Hg (1011.6 mb)
[Sea-level pressure: 1011.4 mb]
Winds: from the WSW (240 degrees) at 10 MPH (9 knots; 4.7 m/s)
Visibility: 10 or more miles (16+ km)
Ceiling: at least 12,000 feet AGL
Clouds: sky clear below 12,000 feet AGL
Present Weather: no significant weather observed at this time
KSRQ 251753Z 24009KT 10SM CLR 28/23 A2987 RMK AO2 SLP114 T02830233 10283 20222 58013

Conditions at: KSRQ observed 25 September 2017  16:53 UTC
Temperature: 28.3°C (83°F)
Dewpoint: 23.9°C (75°F) [RH = 77%]
Pressure (altimeter): 29.89 inches Hg (1012.3 mb)
[Sea-level pressure: 1012.2 mb]
Winds: from the WSW (240 degrees) at 8 MPH (7 knots; 3.6 m/s)
Visibility: 10 or more miles (16+ km)
Ceiling: at least 12,000 feet AGL
Clouds: sky clear below 12,000 feet AGL
Present Weather: no significant weather observed at this time
KSRQ 251653Z 24007KT 10SM CLR 28/24 A2989 RMK AO2 SLP122 T02830239

Conditions at: KSRQ observed 25 September 2017  15:53 UTC
Temperature: 27.2°C (81°F)
Dewpoint: 23.3°C (74°F) [RH = 79%]
Pressure (altimeter): 29.90 inches Hg (1012.6 mb)
[Sea-level pressure: 1012.6 mb]
Winds: calm
Visibility: 10 or more miles (16+ km)
Ceiling: at least 12,000 feet AGL
Clouds: sky clear below 12,000 feet AGL
Present Weather: no significant weather observed at this time
KSRQ 251553Z 00000KT 10SM CLR 27/23 A2990 RMK AO2 SLP126 T02720233

Conditions at: KSRQ observed 25 September 2017  14:53 UTC
Temperature: 25.6°C (78°F)
Dewpoint: 23.9°C (75°F) [RH = 90%]
Pressure (altimeter): 29.91 inches Hg (1013.0 mb)
[Sea-level pressure: 1012.7 mb]
Winds: from the ENE (60 degrees) at 5 MPH (4 knots; 2.1 m/s)
Visibility: 10 or more miles (16+ km)
Ceiling: at least 12,000 feet AGL
Clouds: sky clear below 12,000 feet AGL
Present Weather: no significant weather observed at this time
KSRQ 251453Z 06004KT 10SM CLR 26/24 A2991 RMK AO2 SLP127 T02560239 51008